Time;durP1;ratioP1;P1;durP2;ratioP2;P2;SDS_P1;SDS_P2;PMS_P1;PMS_P2;Temp;Humidity;BMP_temperature;BMP_pressure;BME280_temperature;BME280_humidity;BME280_pressure;Samples;Min_cycle;Max_cycle;Signal;HPM_P1;HPM_P2
2023/11/30 00:00:14;;;;;;;25.75;14.27;;;;;;;3.80;75.66;98485.66;5013873;28;20046;-74
2023/11/30 00:02:41;;;;;;;27.00;14.10;;;;;;;3.81;75.91;98482.16;5013798;28;20046;-72
2023/11/30 00:05:08;;;;;;;21.83;13.77;;;;;;;3.82;76.03;98489.06;5013634;28;20058;-72
2023/11/30 00:07:35;;;;;;;23.30;12.90;;;;;;;3.81;75.71;98484.78;4996282;28;20046;-77
2023/11/30 00:10:03;;;;;;;24.13;13.02;;;;;;;3.82;75.64;98482.09;5013519;28;20096;-78
2023/11/30 00:12:30;;;;;;;26.35;14.35;;;;;;;3.82;75.57;98476.03;5013685;28;20062;-76
2023/11/30 00:14:56;;;;;;;24.08;13.38;;;;;;;3.83;75.77;98475.13;5013517;28;20112;-72
2023/11/30 00:17:23;;;;;;;24.30;13.52;;;;;;;3.83;75.35;98478.56;5013401;28;20053;-74
2023/11/30 00:19:50;;;;;;;23.58;13.98;;;;;;;3.83;75.54;98482.91;5013385;28;20330;-74
2023/11/30 00:22:16;;;;;;;22.45;13.48;;;;;;;3.81;75.66;98482.16;4995912;28;20065;-72
2023/11/30 00:24:43;;;;;;;23.75;13.95;;;;;;;3.81;75.59;98482.16;4995516;28;20053;-76
2023/11/30 00:27:09;;;;;;;21.00;13.18;;;;;;;3.80;75.67;98477.84;4995792;28;20483;-72
2023/11/30 00:29:36;;;;;;;21.73;13.15;;;;;;;3.78;75.66;98475.34;5013235;28;20057;-77
2023/11/30 00:32:02;;;;;;;22.13;13.60;;;;;;;3.77;75.48;98482.31;5012233;28;20053;-72
2023/11/30 00:34:29;;;;;;;23.70;14.18;;;;;;;3.76;75.27;98480.63;5013129;28;20096;-75
2023/11/30 00:36:55;;;;;;;26.33;14.82;;;;;;;3.75;75.26;98481.56;5013112;28;20042;-73
2023/11/30 00:39:22;;;;;;;28.05;14.70;;;;;;;3.73;75.42;98478.19;5012817;28;20113;-73
2023/11/30 00:41:48;;;;;;;23.95;14.57;;;;;;;3.70;75.42;98485.31;5013106;28;20054;-75
2023/11/30 00:44:18;;;;;;;25.25;15.15;;;;;;;3.67;75.14;98486.31;5013150;28;20054;-73
2023/11/30 00:46:44;;;;;;;27.30;15.32;;;;;;;3.64;75.19;98487.28;5013021;28;20045;-74
2023/11/30 00:49:11;;;;;;;27.73;15.05;;;;;;;3.61;75.24;98490.03;5012661;28;20054;-74
2023/11/30 00:51:37;;;;;;;26.85;14.95;;;;;;;3.58;75.45;98490.19;5012692;28;20094;-75
2023/11/30 00:54:04;;;;;;;25.90;15.43;;;;;;;3.58;75.27;98499.72;5012505;28;20522;-73
2023/11/30 00:56:31;;;;;;;30.77;15.45;;;;;;;3.55;75.03;98499.91;4995513;28;20050;-73
2023/11/30 00:58:57;;;;;;;28.95;15.70;;;;;;;3.51;75.24;98497.44;5012459;28;20621;-76
2023/11/30 01:01:24;;;;;;;27.65;15.63;;;;;;;3.48;75.07;98492.38;5012820;28;20057;-74
2023/11/30 01:03:50;;;;;;;30.27;14.63;;;;;;;3.46;75.61;98495.97;5012369;28;20498;-74
2023/11/30 01:06:17;;;;;;;48.85;16.67;;;;;;;3.43;75.71;98494.38;5012463;28;20050;-73
2023/11/30 01:08:43;;;;;;;36.47;16.27;;;;;;;3.40;75.32;98491.91;4995425;28;20056;-76
2023/11/30 01:11:10;;;;;;;29.83;16.15;;;;;;;3.37;75.68;98485.09;5012540;28;20481;-77
2023/11/30 01:13:36;;;;;;;30.48;15.20;;;;;;;3.36;75.64;98491.22;5012117;28;20081;-74
2023/11/30 01:16:03;;;;;;;29.58;14.88;;;;;;;3.34;75.35;98490.47;4995089;28;20100;-76
2023/11/30 01:18:30;;;;;;;31.83;15.52;;;;;;;3.34;75.73;98485.25;5012276;28;20054;-71
2023/11/30 01:20:57;;;;;;;28.85;15.98;;;;;;;3.34;75.92;98492.22;5012197;28;20053;-73
2023/11/30 01:23:23;;;;;;;30.55;16.08;;;;;;;3.34;75.95;98494.81;5011939;28;20056;-74
2023/11/30 01:25:50;;;;;;;29.17;15.45;;;;;;;3.37;75.92;98494.66;5012517;28;20064;-74
2023/11/30 01:28:17;;;;;;;50.25;17.67;;;;;;;3.38;75.87;98497.19;4994801;28;20141;-73
2023/11/30 01:30:43;;;;;;;71.93;17.88;;;;;;;3.40;75.74;98497.09;4994786;28;20058;-77
2023/11/30 01:33:10;;;;;;;52.70;15.52;;;;;;;3.43;76.14;98490.94;5012199;28;20112;-77
2023/11/30 01:35:36;;;;;;;61.53;16.55;;;;;;;3.40;75.41;98484.09;5011727;28;20060;-76
2023/11/30 01:38:03;;;;;;;34.83;15.25;;;;;;;3.41;75.76;98483.22;5011832;28;20045;-74
2023/11/30 01:40:30;;;;;;;64.88;16.77;;;;;;;3.42;76.03;98481.44;5011842;28;20065;-74
2023/11/30 01:42:56;;;;;;;41.75;19.45;;;;;;;3.43;76.05;98477.94;4994159;28;20565;-76
2023/11/30 01:45:23;;;;;;;72.10;19.70;;;;;;;3.43;76.16;98472.72;4994342;28;20112;-73
2023/11/30 01:47:50;;;;;;;62.10;18.77;;;;;;;3.44;76.54;98477.00;4994389;28;20104;-76
2023/11/30 01:50:17;;;;;;;73.85;16.90;;;;;;;3.46;76.13;98475.16;5011611;28;20049;-75
2023/11/30 01:52:44;;;;;;;48.58;17.30;;;;;;;3.46;76.18;98473.41;5011845;28;20058;-74
2023/11/30 01:55:12;;;;;;;100.93;20.25;;;;;;;3.47;75.66;98477.69;4994073;28;20898;-74
2023/11/30 01:57:39;;;;;;;94.25;20.67;;;;;;;3.46;75.47;98475.16;4994280;28;20053;-72
2023/11/30 02:00:06;;;;;;;169.60;22.40;;;;;;;3.43;75.36;98464.94;5011465;28;20053;-75
2023/11/30 02:02:34;;;;;;;79.82;19.48;;;;;;;3.38;74.76;98475.53;4993934;28;20064;-78
2023/11/30 02:05:01;;;;;;;128.02;20.60;;;;;;;3.33;75.29;98473.16;5003738;28;20111;-74
2023/11/30 02:07:27;;;;;;;104.25;19.80;;;;;;;3.29;75.18;98462.97;5011485;28;20045;-72
2023/11/30 02:09:54;;;;;;;138.68;21.02;;;;;;;3.24;75.29;98463.19;4993762;28;20066;-74
2023/11/30 02:12:20;;;;;;;140.88;20.63;;;;;;;3.18;75.11;98460.91;4994074;28;20136;-73
2023/11/30 02:14:47;;;;;;;93.45;18.08;;;;;;;3.13;75.19;98454.16;5011233;28;20046;-74
2023/11/30 02:17:13;;;;;;;95.78;16.63;;;;;;;3.07;75.36;98454.44;5011370;28;20065;-72
2023/11/30 02:19:40;;;;;;;73.30;17.27;;;;;;;3.04;75.98;98448.53;4993660;28;20557;-74
2023/11/30 02:22:07;;;;;;;91.00;17.27;;;;;;;3.00;75.53;98448.66;5011436;28;20061;-75
2023/11/30 02:24:34;;;;;;;110.32;17.67;;;;;;;2.98;75.57;98447.91;5011038;28;20050;-74
2023/11/30 02:27:00;;;;;;;89.28;18.00;;;;;;;2.97;75.81;98448.00;5011134;28;20046;-72
2023/11/30 02:29:27;;;;;;;60.35;17.13;;;;;;;2.96;76.43;98444.53;4993846;28;20058;-73
2023/11/30 02:31:53;;;;;;;125.07;18.83;;;;;;;2.96;76.37;98441.94;5010907;28;20120;-75
2023/11/30 02:34:20;;;;;;;64.07;16.67;;;;;;;2.95;76.78;98435.06;5011085;28;20042;-76
2023/11/30 02:36:47;;;;;;;46.75;14.02;;;;;;;2.99;76.56;98435.78;5011285;28;20087;-71
2023/11/30 02:39:13;;;;;;;110.15;17.58;;;;;;;3.00;76.79;98435.69;5011145;28;20514;-76
2023/11/30 02:41:40;;;;;;;47.85;15.35;;;;;;;3.04;77.08;98427.75;4993522;28;20101;-76
2023/11/30 02:44:08;;;;;;;48.50;15.30;;;;;;;3.08;76.83;98435.34;5010905;28;20403;-75
2023/11/30 02:46:34;;;;;;;77.03;15.43;;;;;;;3.12;76.69;98417.81;4993432;28;20115;-73
2023/11/30 02:49:01;;;;;;;144.80;18.52;;;;;;;3.15;76.39;98427.22;5011119;28;20108;-74
2023/11/30 02:51:28;;;;;;;139.52;19.02;;;;;;;3.19;76.43;98420.97;5011002;28;20045;-72
2023/11/30 02:53:54;;;;;;;142.43;19.55;;;;;;;3.20;76.21;98425.25;5010816;28;20052;-75
2023/11/30 02:56:21;;;;;;;186.90;20.75;;;;;;;3.18;75.77;98435.72;5013949;28;20422;-72
2023/11/30 02:58:47;;;;;;;35.75;12.77;;;;;;;3.16;76.00;98427.16;4997265;28;20077;-72
2023/11/30 03:01:14;;;;;;;101.10;14.98;;;;;;;3.14;75.65;98423.78;4997286;28;20088;-75
2023/11/30 03:03:41;;;;;;;101.78;15.18;;;;;;;3.11;75.83;98409.16;5014823;28;20387;-74
2023/11/30 03:06:11;;;;;;;71.78;14.60;;;;;;;3.10;75.48;98417.06;5014959;28;20055;-72
2023/11/30 03:08:38;;;;;;;42.22;14.40;;;;;;;3.10;76.10;98415.28;4997393;28;20057;-75
2023/11/30 03:11:05;;;;;;;59.72;15.27;;;;;;;3.10;76.24;98420.50;5014808;28;20049;-75
2023/11/30 03:13:31;;;;;;;35.17;12.95;;;;;;;3.12;76.22;98428.22;5014363;28;20096;-73
2023/11/30 03:15:58;;;;;;;92.10;14.73;;;;;;;3.14;76.46;98421.16;5014733;28;20062;-72
2023/11/30 03:18:25;;;;;;;25.02;12.30;;;;;;;3.15;76.50;98420.28;5014612;28;20056;-74
2023/11/30 03:20:51;;;;;;;38.75;12.23;;;;;;;3.18;76.40;98429.69;5014547;28;20466;-73
2023/11/30 03:23:18;;;;;;;34.47;12.98;;;;;;;3.20;76.24;98420.03;5014415;28;20069;-73
2023/11/30 03:25:45;;;;;;;38.95;12.70;;;;;;;3.21;76.57;98417.38;4996705;28;20050;-74
2023/11/30 03:28:12;;;;;;;37.45;14.32;;;;;;;3.23;75.99;98412.97;5014537;28;20411;-75
2023/11/30 03:30:39;;;;;;;40.75;13.95;;;;;;;3.25;75.93;98418.06;5014197;28;20416;-74
2023/11/30 03:33:05;;;;;;;25.05;12.73;;;;;;;3.26;75.94;98412.78;4996908;28;20057;-72
2023/11/30 03:35:32;;;;;;;35.20;13.23;;;;;;;3.28;76.08;98417.91;4996831;28;20060;-74
2023/11/30 03:37:58;;;;;;;30.77;13.73;;;;;;;3.29;75.65;98406.59;5014199;28;20056;-78
2023/11/30 03:40:25;;;;;;;29.60;13.10;;;;;;;3.31;75.62;98403.91;5013962;28;20058;-74
2023/11/30 03:42:51;;;;;;;61.28;14.75;;;;;;;3.31;75.29;98403.91;5014005;28;20089;-76
2023/11/30 03:45:18;;;;;;;44.47;13.63;;;;;;;3.30;75.15;98410.91;5014112;28;20045;-74
2023/11/30 03:47:45;;;;;;;130.02;17.63;;;;;;;3.28;75.37;98410.13;5014132;28;20054;-73
2023/11/30 03:50:11;;;;;;;33.88;11.88;;;;;;;3.25;75.24;98410.25;5014031;28;20050;-75
2023/11/30 03:52:38;;;;;;;45.95;12.77;;;;;;;3.23;75.38;98410.34;4996459;28;20064;-72
2023/11/30 03:55:05;;;;;;;42.45;13.02;;;;;;;3.21;75.38;98414.78;4996322;28;20405;-76
2023/11/30 03:57:31;;;;;;;33.22;13.82;;;;;;;3.20;75.35;98410.50;4996536;28;20062;-73
2023/11/30 03:59:58;;;;;;;83.75;16.10;;;;;;;3.19;75.52;98415.75;5013775;28;20050;-74
2023/11/30 04:02:25;;;;;;;58.33;14.45;;;;;;;3.20;75.97;98414.84;4996328;28;20058;-77
2023/11/30 04:04:51;;;;;;;89.50;12.32;;;;;;;3.20;75.78;98417.44;4996166;28;20060;-74
2023/11/30 04:07:18;;;;;;;66.40;14.80;;;;;;;3.21;75.56;98411.34;4994863;28;20050;-77
2023/11/30 04:09:46;;;;;;;85.32;13.85;;;;;;;3.22;75.51;98420.81;4996168;28;20456;-74
2023/11/30 04:12:12;;;;;;;94.80;15.57;;;;;;;3.22;75.94;98423.44;5013858;28;20073;-74
2023/11/30 04:14:39;;;;;;;100.72;16.50;;;;;;;3.23;75.98;98422.50;4996113;28;20104;-73
2023/11/30 04:17:05;;;;;;;131.00;17.67;;;;;;;3.22;75.58;98420.81;4996168;28;20111;-73
2023/11/30 04:19:32;;;;;;;99.43;14.57;;;;;;;3.22;75.65;98423.44;5013525;28;20042;-72
2023/11/30 04:21:59;;;;;;;90.72;16.70;;;;;;;3.18;75.27;98420.13;5013455;28;20459;-74
2023/11/30 04:24:25;;;;;;;97.78;15.88;;;;;;;3.16;75.11;98414.16;5013127;28;20060;-74
2023/11/30 04:26:53;;;;;;;41.92;14.30;;;;;;;3.13;75.38;98412.56;5013470;28;20057;-72
2023/11/30 04:29:19;;;;;;;46.92;14.13;;;;;;;3.10;75.84;98407.50;5013406;28;20054;-74
2023/11/30 04:31:46;;;;;;;32.25;13.63;;;;;;;3.12;75.85;98412.63;5013334;28;20053;-75
2023/11/30 04:34:13;;;;;;;32.00;12.60;;;;;;;3.12;75.77;98416.06;4995839;28;20058;-73
2023/11/30 04:36:39;;;;;;;39.13;13.68;;;;;;;3.13;76.31;98406.50;5013137;28;20080;-74
2023/11/30 04:39:06;;;;;;;57.92;13.98;;;;;;;3.15;76.14;98419.44;5012931;28;20165;-72
2023/11/30 04:41:32;;;;;;;79.32;15.02;;;;;;;3.14;75.49;98421.16;5012963;28;20053;-74
2023/11/30 04:43:59;;;;;;;53.10;12.93;;;;;;;3.10;74.85;98409.28;5012956;28;20058;-74
2023/11/30 04:46:26;;;;;;;133.35;16.40;;;;;;;3.04;74.72;98412.13;5012987;28;20097;-74
2023/11/30 04:48:54;;;;;;;86.70;15.40;;;;;;;2.99;75.02;98409.78;4995591;28;20081;-74
2023/11/30 04:51:21;;;;;;;116.55;15.73;;;;;;;2.93;75.06;98410.06;4995409;28;20050;-75
2023/11/30 04:53:49;;;;;;;147.05;17.50;;;;;;;2.89;75.02;98405.91;5012850;28;20163;-75
2023/11/30 04:56:15;;;;;;;154.35;16.92;;;;;;;2.84;75.56;98406.16;5012839;28;20054;-76
2023/11/30 04:58:42;;;;;;;107.70;14.32;;;;;;;2.81;75.30;98404.50;5012587;28;20562;-73
2023/11/30 05:01:09;;;;;;;80.00;14.25;;;;;;;2.78;75.87;98403.81;5012599;28;20466;-74
2023/11/30 05:03:36;;;;;;;29.80;12.07;;;;;;;2.77;76.30;98403.00;5012516;28;20104;-75
2023/11/30 05:06:03;;;;;;;87.68;14.48;;;;;;;2.78;76.19;98402.06;5012585;28;20061;-73
2023/11/30 05:08:29;;;;;;;235.73;23.35;;;;;;;2.80;75.58;98404.59;5012621;28;20072;-75
2023/11/30 05:10:57;;;;;;;133.77;17.58;;;;;;;2.78;75.19;98404.69;5012472;28;20171;-74
2023/11/30 05:13:24;;;;;;;73.55;14.68;;;;;;;2.77;75.20;98404.75;5012371;28;20084;-76
2023/11/30 05:15:50;;;;;;;124.85;15.55;;;;;;;2.73;75.52;98404.06;5012518;28;20613;-77
2023/11/30 05:18:18;;;;;;;41.03;13.52;;;;;;;2.70;75.31;98407.59;5011834;28;20085;-75
2023/11/30 05:20:44;;;;;;;99.03;16.30;;;;;;;2.67;75.22;98407.78;5012206;28;20049;-75
2023/11/30 05:23:11;;;;;;;39.45;13.07;;;;;;;2.64;75.12;98409.66;5012386;28;20045;-74
2023/11/30 05:25:38;;;;;;;28.75;13.50;;;;;;;2.60;75.23;98403.75;4994712;28;20054;-76
2023/11/30 05:28:06;;;;;;;30.92;13.88;;;;;;;2.57;75.75;98409.09;5011928;28;20053;-73
2023/11/30 05:30:32;;;;;;;29.55;13.98;;;;;;;2.54;75.61;98401.47;5012005;28;20054;-75
2023/11/30 05:32:59;;;;;;;26.45;13.80;;;;;;;2.52;75.57;98411.91;5011958;28;20050;-73
2023/11/30 05:35:26;;;;;;;30.20;14.10;;;;;;;2.49;75.64;98409.44;5011619;28;20185;-73
2023/11/30 05:37:53;;;;;;;39.85;14.60;;;;;;;2.47;75.54;98419.91;5012058;28;20053;-74
2023/11/30 05:40:19;;;;;;;40.97;14.27;;;;;;;2.46;75.92;98413.03;5011598;28;20046;-74
2023/11/30 05:42:47;;;;;;;26.83;13.65;;;;;;;2.44;76.15;98412.25;4994502;28;20053;-75
2023/11/30 05:45:13;;;;;;;27.58;13.75;;;;;;;2.42;75.98;98411.47;5011669;28;20060;-77
2023/11/30 05:47:40;;;;;;;82.72;15.98;;;;;;;2.42;75.65;98415.81;4994042;28;20077;-75
2023/11/30 05:50:07;;;;;;;80.50;17.05;;;;;;;2.41;75.85;98415.00;4994362;28;20049;-75
2023/11/30 05:52:35;;;;;;;54.47;14.55;;;;;;;2.39;75.89;98416.81;5011720;28;20050;-77
2023/11/30 05:55:04;;;;;;;82.65;16.73;;;;;;;2.38;75.66;98417.72;5011452;28;20458;-75
2023/11/30 05:57:30;;;;;;;56.55;15.55;;;;;;;2.35;75.64;98420.47;5011585;28;20053;-72
2023/11/30 05:59:57;;;;;;;63.35;16.45;;;;;;;2.32;75.79;98418.84;5011377;28;20056;-75
2023/11/30 06:02:24;;;;;;;93.65;15.77;;;;;;;2.31;75.94;98411.97;5011360;28;20057;-74
2023/11/30 06:04:51;;;;;;;37.17;15.68;;;;;;;2.29;76.35;98416.41;5011531;28;20050;-73
2023/11/30 06:07:19;;;;;;;79.28;16.38;;;;;;;2.28;75.85;98409.50;4994275;28;20050;-74
2023/11/30 06:09:46;;;;;;;49.97;15.45;;;;;;;2.27;75.92;98417.34;5011484;28;20058;-74
2023/11/30 06:12:13;;;;;;;50.97;15.30;;;;;;;2.25;76.20;98416.59;4994036;28;20066;-71
2023/11/30 06:14:40;;;;;;;62.90;16.08;;;;;;;2.22;76.41;98413.22;4993649;28;20049;-73
2023/11/30 06:17:06;;;;;;;53.95;15.88;;;;;;;2.21;76.56;98419.31;5011323;28;20145;-71
2023/11/30 06:19:33;;;;;;;81.30;17.38;;;;;;;2.20;76.00;98416.78;5011322;28;20046;-72
2023/11/30 06:22:01;;;;;;;77.53;15.70;;;;;;;2.17;76.34;98420.38;5011516;28;20076;-72
2023/11/30 06:24:28;;;;;;;26.05;14.45;;;;;;;2.18;76.75;98419.47;5011146;28;20046;-74
2023/11/30 06:26:55;;;;;;;27.33;14.52;;;;;;;2.17;76.82;98419.53;4993702;28;20049;-74
2023/11/30 06:29:24;;;;;;;24.30;14.45;;;;;;;2.15;77.05;98417.00;5010623;28;20050;-75
2023/11/30 06:31:50;;;;;;;46.38;15.27;;;;;;;2.14;76.67;98422.25;5010941;28;20513;-73
2023/11/30 06:34:17;;;;;;;27.90;13.82;;;;;;;2.14;77.19;98417.06;5010899;28;20055;-73
2023/11/30 06:36:43;;;;;;;27.67;13.95;;;;;;;2.13;76.88;98424.00;5011204;28;20100;-74
2023/11/30 06:39:10;;;;;;;28.90;13.90;;;;;;;2.15;77.11;98413.56;5011074;28;20057;-73
2023/11/30 06:41:36;;;;;;;27.30;13.68;;;;;;;2.15;77.40;98417.00;4993405;28;20411;-75
2023/11/30 06:44:03;;;;;;;25.92;14.27;;;;;;;2.17;76.72;98415.16;5010822;28;20100;-72
2023/11/30 06:46:30;;;;;;;30.30;13.48;;;;;;;2.19;77.34;98421.16;5011220;28;20050;-72
2023/11/30 06:48:56;;;;;;;28.95;14.80;;;;;;;2.21;77.41;98424.50;5011020;28;20052;-73
2023/11/30 06:51:23;;;;;;;30.17;14.15;;;;;;;2.25;77.49;98422.66;5011103;28;20058;-77
2023/11/30 06:53:49;;;;;;;25.85;13.18;;;;;;;2.31;78.04;98429.28;5010805;28;20057;-77
2023/11/30 06:56:16;;;;;;;59.25;16.13;;;;;;;2.35;77.81;98430.84;5011124;28;20113;-74
2023/11/30 06:58:42;;;;;;;28.05;14.60;;;;;;;2.41;77.37;98434.94;5011315;28;20062;-73
2023/11/30 07:01:12;;;;;;;25.17;14.18;;;;;;;2.46;77.87;98433.81;4993374;28;20522;-73
2023/11/30 07:03:38;;;;;;;26.55;13.90;;;;;;;2.53;77.49;98433.53;5010962;28;20050;-75
2023/11/30 07:06:09;;;;;;;28.52;15.27;;;;;;;2.58;77.17;98431.59;5011116;28;20054;-76
2023/11/30 07:08:36;;;;;;;30.83;16.05;;;;;;;2.64;77.56;98431.28;5010846;28;20050;-72
2023/11/30 07:11:07;;;;;;;30.70;15.48;;;;;;;2.67;76.76;98427.69;5010700;28;20475;-74
2023/11/30 07:13:33;;;;;;;28.30;15.80;;;;;;;2.71;77.17;98432.69;5010913;28;20054;-75
2023/11/30 07:16:00;;;;;;;30.05;15.00;;;;;;;2.74;76.93;98434.31;4993459;28;20068;-75
2023/11/30 07:18:27;;;;;;;34.90;15.55;;;;;;;2.79;77.31;98428.88;5010765;28;20100;-73
2023/11/30 07:20:54;;;;;;;39.55;18.35;;;;;;;2.84;76.78;98426.94;5010714;28;20778;-71
2023/11/30 07:23:20;;;;;;;41.03;17.00;;;;;;;2.87;76.43;98429.38;5010844;28;20065;-75
2023/11/30 07:25:47;;;;;;;33.13;17.35;;;;;;;2.90;76.19;98426.63;5010378;28;20111;-74
2023/11/30 07:28:13;;;;;;;31.08;16.77;;;;;;;2.92;76.06;98435.19;5010833;28;20050;-74
2023/11/30 07:30:42;;;;;;;35.67;18.42;;;;;;;2.94;76.37;98438.56;5010704;28;20089;-77
2023/11/30 07:33:09;;;;;;;33.50;17.83;;;;;;;2.96;76.24;98443.72;5010447;28;20129;-77
2023/11/30 07:35:37;;;;;;;36.95;19.10;;;;;;;2.96;76.21;98436.72;5010364;28;20058;-75
2023/11/30 07:38:05;;;;;;;39.60;19.92;;;;;;;2.98;76.34;98436.66;4993010;28;20050;-72
2023/11/30 07:40:34;;;;;;;38.65;19.58;;;;;;;2.99;76.16;98436.59;5010503;28;20100;-74
2023/11/30 07:43:01;;;;;;;38.17;20.30;;;;;;;3.01;76.11;98433.94;5014018;28;20537;-74
2023/11/30 07:45:29;;;;;;;36.50;19.50;;;;;;;3.03;76.56;98436.47;5013948;28;20133;-75
2023/11/30 07:47:57;;;;;;;36.30;18.88;;;;;;;3.05;76.42;98439.81;4996726;28;20062;-76
2023/11/30 07:50:27;;;;;;;34.47;18.73;;;;;;;3.08;76.28;98440.53;5013984;28;20061;-73
2023/11/30 07:52:53;;;;;;;35.53;19.25;;;;;;;3.11;76.27;98439.53;4996621;28;20054;-74
2023/11/30 07:55:20;;;;;;;33.35;18.80;;;;;;;3.15;76.43;98448.88;5013904;28;20065;-75
2023/11/30 07:57:48;;;;;;;38.90;19.77;;;;;;;3.17;76.15;98449.63;5013956;28;20418;-71
2023/11/30 08:00:15;;;;;;;36.67;18.13;;;;;;;3.21;76.21;98455.56;5013733;28;20046;-74
2023/11/30 08:02:42;;;;;;;34.92;19.08;;;;;;;3.26;76.25;98453.56;5013643;28;20069;-76
2023/11/30 08:05:12;;;;;;;31.48;18.23;;;;;;;3.29;76.11;98455.19;5013361;28;20112;-76
2023/11/30 08:07:38;;;;;;;34.45;18.55;;;;;;;3.32;76.33;98447.25;5013553;28;20665;-73
2023/11/30 08:10:06;;;;;;;40.53;19.60;;;;;;;3.36;76.30;98448.75;4996340;28;20108;-77
2023/11/30 08:12:33;;;;;;;40.60;19.98;;;;;;;3.38;76.00;98447.78;5013700;28;20057;-76
2023/11/30 08:14:59;;;;;;;45.42;20.30;;;;;;;3.42;76.01;98455.41;5013569;28;20149;-76
2023/11/30 08:17:26;;;;;;;34.90;18.23;;;;;;;3.45;75.99;98457.88;5013405;28;20053;-72
2023/11/30 08:19:53;;;;;;;44.83;19.88;;;;;;;3.48;75.78;98450.75;4996063;28;20553;-74
2023/11/30 08:22:19;;;;;;;43.15;20.25;;;;;;;3.50;76.00;98454.13;5013374;28;20057;-77
2023/11/30 08:24:46;;;;;;;42.75;20.92;;;;;;;3.54;75.85;98459.19;5013335;28;20098;-73
2023/11/30 08:27:12;;;;;;;51.78;20.52;;;;;;;3.55;75.65;98453.91;5013424;28;20066;-76
2023/11/30 08:29:40;;;;;;;39.20;19.95;;;;;;;3.57;75.76;98453.81;5013157;28;20045;-77
2023/11/30 08:32:06;;;;;;;42.22;19.58;;;;;;;3.58;75.75;98452.91;5012936;28;20092;-75
2023/11/30 08:34:33;;;;;;;40.95;21.25;;;;;;;3.60;75.79;98453.69;4995951;28;20046;-74
2023/11/30 08:37:00;;;;;;;38.58;19.02;;;;;;;3.61;75.57;98452.75;5013508;28;20054;-76
2023/11/30 08:39:28;;;;;;;41.72;21.60;;;;;;;3.63;75.37;98456.13;5013094;28;20050;-75
2023/11/30 08:41:55;;;;;;;43.05;20.17;;;;;;;3.65;75.36;98456.88;5013100;28;20140;-75
2023/11/30 08:44:25;;;;;;;43.60;20.63;;;;;;;3.66;75.49;98458.56;5012895;28;20050;-73
2023/11/30 08:46:52;;;;;;;52.67;23.10;;;;;;;3.68;75.37;98448.09;4995461;28;20112;-74
2023/11/30 08:49:19;;;;;;;51.00;22.15;;;;;;;3.68;75.72;98446.34;5012923;28;20103;-74
2023/11/30 08:51:46;;;;;;;52.38;21.73;;;;;;;3.69;75.84;98444.56;5013020;28;20053;-76
2023/11/30 08:54:13;;;;;;;55.75;22.65;;;;;;;3.70;75.86;98438.47;5012143;28;20057;-74
2023/11/30 08:56:39;;;;;;;46.67;21.38;;;;;;;3.73;75.93;98433.94;5012908;28;20060;-74
2023/11/30 08:59:06;;;;;;;50.47;22.95;;;;;;;3.75;75.74;98442.53;5012854;28;20515;-78
2023/11/30 09:01:32;;;;;;;51.75;22.63;;;;;;;3.77;75.51;98434.59;4995068;28;20149;-75
2023/11/30 09:04:03;;;;;;;51.03;21.92;;;;;;;3.80;75.36;98433.59;5012682;28;20050;-74
2023/11/30 09:06:30;;;;;;;49.58;21.67;;;;;;;3.80;75.50;98434.47;5012909;28;20093;-75
2023/11/30 09:08:57;;;;;;;47.22;22.42;;;;;;;3.82;75.88;98431.78;5012403;28;20104;-74
2023/11/30 09:11:24;;;;;;;51.15;22.98;;;;;;;3.83;75.87;98431.72;5012608;28;20067;-77
2023/11/30 09:13:52;;;;;;;51.75;22.33;;;;;;;3.85;75.97;98429.03;4994915;28;20100;-74
2023/11/30 09:16:18;;;;;;;54.28;22.08;;;;;;;3.90;76.44;98432.25;4994926;28;20057;-74
2023/11/30 09:18:45;;;;;;;51.40;23.42;;;;;;;3.92;76.19;98427.78;5012431;28;20050;-76
2023/11/30 09:21:12;;;;;;;48.85;23.30;;;;;;;3.97;76.45;98423.22;5012527;28;20648;-73
2023/11/30 09:23:39;;;;;;;51.78;23.60;;;;;;;4.01;76.46;98426.47;5012400;28;20061;-75
2023/11/30 09:26:09;;;;;;;52.67;23.83;;;;;;;4.04;76.47;98421.94;4994989;28;20470;-73
2023/11/30 09:28:37;;;;;;;53.70;23.05;;;;;;;4.10;76.41;98430.34;5012077;28;20518;-75
2023/11/30 09:31:05;;;;;;;52.25;23.23;;;;;;;4.13;76.43;98412.84;5012311;28;20100;-76
2023/11/30 09:33:32;;;;;;;55.35;23.25;;;;;;;4.18;76.90;98417.78;5012018;28;20065;-75
2023/11/30 09:35:59;;;;;;;52.95;22.77;;;;;;;4.24;76.86;98419.22;4994887;28;20046;-75
2023/11/30 09:38:26;;;;;;;47.92;22.08;;;;;;;4.29;76.83;98419.81;4994599;28;20109;-78
2023/11/30 09:40:52;;;;;;;53.40;23.88;;;;;;;4.34;76.75;98420.41;4994497;28;20088;-74
2023/11/30 09:43:19;;;;;;;51.03;23.33;;;;;;;4.41;76.92;98419.19;5011959;28;20055;-73
2023/11/30 09:45:47;;;;;;;57.85;25.23;;;;;;;4.46;76.45;98418.94;5011857;28;20050;-74
2023/11/30 09:48:14;;;;;;;51.30;22.42;;;;;;;4.52;76.40;98421.22;4994315;28;20133;-76
2023/11/30 09:50:42;;;;;;;53.75;22.88;;;;;;;4.57;76.32;98424.41;5011691;28;20510;-74
2023/11/30 09:53:09;;;;;;;66.93;23.88;;;;;;;4.61;76.19;98416.44;4994258;28;20104;-74
2023/11/30 09:55:37;;;;;;;55.00;25.13;;;;;;;4.64;75.91;98421.47;5011358;28;20081;-74
2023/11/30 09:58:03;;;;;;;55.88;24.83;;;;;;;4.67;75.93;98421.28;4994152;28;20487;-77
2023/11/30 10:00:30;;;;;;;60.45;25.50;;;;;;;4.71;76.13;98417.59;5011793;28;20073;-77
2023/11/30 10:03:00;;;;;;;67.10;27.27;;;;;;;4.72;76.11;98419.31;5011749;28;20113;-72
2023/11/30 10:05:28;;;;;;;52.60;24.80;;;;;;;4.76;76.33;98407.78;4993946;28;20049;-74
2023/11/30 10:07:58;;;;;;;55.10;26.38;;;;;;;4.79;76.03;98409.38;5011567;28;20057;-75
2023/11/30 10:10:26;;;;;;;55.95;24.63;;;;;;;4.82;75.90;98404.81;5011355;28;20104;-75
2023/11/30 10:12:55;;;;;;;58.50;24.92;;;;;;;4.83;75.97;98405.69;5011294;28;20415;-75
2023/11/30 10:15:22;;;;;;;61.15;25.02;;;;;;;4.86;76.08;98405.47;5011648;28;20045;-72
2023/11/30 10:17:49;;;;;;;55.20;25.45;;;;;;;4.89;76.05;98409.69;4994927;28;20046;-73
2023/11/30 10:20:18;;;;;;;55.67;24.77;;;;;;;4.92;76.04;98406.91;5011926;28;20045;-74
2023/11/30 10:22:45;;;;;;;55.00;25.70;;;;;;;4.95;75.71;98396.31;5011810;28;20046;-75
2023/11/30 10:25:12;;;;;;;53.88;25.83;;;;;;;4.98;75.80;98392.72;5011866;28;20459;-77
2023/11/30 10:27:41;;;;;;;65.63;27.00;;;;;;;5.00;75.62;98390.84;5012123;28;20383;-74
2023/11/30 10:30:10;;;;;;;56.92;27.05;;;;;;;5.02;75.32;98387.25;5011544;28;20053;-71
2023/11/30 10:32:39;;;;;;;58.35;25.77;;;;;;;5.03;75.59;98380.25;5011251;28;20049;-73
2023/11/30 10:35:13;;;;;;;64.00;27.55;;;;;;;5.03;74.24;98377.63;4993570;28;20054;-75
2023/11/30 10:37:44;;;;;;;55.55;25.40;;;;;;;5.05;75.12;98378.41;4993838;28;20053;-78
2023/11/30 10:40:12;;;;;;;55.30;25.77;;;;;;;5.06;75.43;98375.72;5011090;28;20494;-78
2023/11/30 10:42:46;;;;;;;62.95;28.25;;;;;;;5.04;73.92;98369.72;5010914;28;20046;-72
2023/11/30 10:45:15;;;;;;;54.40;25.83;;;;;;;5.06;74.94;98370.50;4993376;28;20525;-72
2023/11/30 10:47:42;;;;;;;59.38;27.00;;;;;;;5.07;75.42;98376.53;5010851;28;20080;-72
2023/11/30 10:50:11;;;;;;;58.97;25.80;;;;;;;5.08;75.55;98365.16;4993674;28;20085;-74
2023/11/30 10:52:43;;;;;;;53.53;25.02;;;;;;;5.09;76.00;98375.50;5010994;28;20052;-73
2023/11/30 10:55:16;;;;;;;49.20;25.08;;;;;;;5.11;74.78;98371.97;4993570;28;20046;-73
2023/11/30 10:57:43;;;;;;;48.55;23.98;;;;;;;5.16;75.88;98367.34;4993479;28;20061;-73
2023/11/30 11:00:12;;;;;;;56.40;26.25;;;;;;;5.19;75.64;98367.16;5010625;28;20053;-72
2023/11/30 11:02:47;;;;;;;53.53;25.98;;;;;;;5.21;74.31;98362.72;5010697;28;20054;-72
2023/11/30 11:05:18;;;;;;;50.63;25.27;;;;;;;5.25;75.32;98359.00;5010777;28;20061;-76
2023/11/30 11:07:46;;;;;;;54.40;25.67;;;;;;;5.27;74.90;98366.75;4993537;28;20137;-73
2023/11/30 11:10:39;;;;;;;58.95;28.02;;;;;;;5.22;72.83;98359.16;4993304;28;20477;-75
2023/11/30 11:13:06;;;;;;;58.67;27.60;;;;;;;5.28;75.02;98355.38;4989125;28;20053;-73
2023/11/30 11:15:33;;;;;;;56.33;27.00;;;;;;;5.27;75.18;98351.91;4993282;28;20113;-74
2023/11/30 11:18:03;;;;;;;63.38;29.55;;;;;;;5.28;75.48;98358.84;4997306;28;20060;-73
2023/11/30 11:20:32;;;;;;;57.42;27.00;;;;;;;5.28;75.11;98358.84;5014746;28;20052;-74
2023/11/30 11:23:02;;;;;;;57.28;26.42;;;;;;;5.29;74.96;98351.81;4997188;28;20054;-74